createdAt,value
2017-08-19T00:00:03.487Z,-4.12
2017-08-19T00:00:58.516Z,-4.12
2017-08-19T00:01:58.480Z,-4.12
2017-08-19T00:02:53.576Z,-4.12
2017-08-19T00:03:48.590Z,-4.12
2017-08-19T00:04:48.647Z,-4.12
2017-08-19T00:05:43.652Z,-4.12
2017-08-19T00:06:37.624Z,-4.12
2017-08-19T00:07:37.764Z,-4.12
2017-08-19T00:08:31.738Z,-4.12
2017-08-19T00:09:25.771Z,-4.12
2017-08-19T00:10:19.830Z,-4.12
2017-08-19T00:11:13.851Z,-4.12
2017-08-19T00:12:02.963Z,-4.12
2017-08-19T00:12:50.950Z,-4.12
2017-08-19T00:13:39.963Z,-4.12
2017-08-19T00:14:33.940Z,-4.12
2017-08-19T00:15:29.014Z,-4.12
2017-08-19T00:16:18.075Z,-4.12
2017-08-19T00:17:12.181Z,-4.12
2017-08-19T00:18:06.238Z,-4.12
2017-08-19T00:19:06.202Z,-4.12
2017-08-19T00:20:01.273Z,-4.12
2017-08-19T00:20:55.189Z,-4.12
2017-08-19T00:21:49.390Z,-4.12
2017-08-19T00:22:49.402Z,-4.13
2017-08-19T00:23:44.342Z,-4.13
2017-08-19T00:24:44.313Z,-4.13
2017-08-19T00:25:39.518Z,-4.13
2017-08-19T00:26:34.481Z,-4.13
2017-08-19T00:27:34.564Z,-4.13
2017-08-19T00:28:29.701Z,-4.13
2017-08-19T00:29:24.656Z,-4.13
2017-08-19T00:30:25.664Z,-4.13
2017-08-19T00:31:25.737Z,-4.13
2017-08-19T00:32:25.673Z,-4.13
2017-08-19T00:33:20.701Z,-4.13
2017-08-19T00:34:14.625Z,-4.13
2017-08-19T00:35:15.792Z,-4.13
2017-08-19T00:36:15.877Z,-4.13
2017-08-19T00:37:15.826Z,-4.13
2017-08-19T00:38:10.803Z,-4.13
2017-08-19T00:39:04.953Z,-4.13
2017-08-19T00:40:05.929Z,-4.13
2017-08-19T00:41:05.925Z,-4.13
2017-08-19T00:42:00.949Z,-4.13
2017-08-19T00:43:01.044Z,-4.13
2017-08-19T00:43:50.095Z,-4.13
2017-08-19T00:44:39.097Z,-4.13
2017-08-19T00:45:28.162Z,-4.13
2017-08-19T00:46:16.036Z,-4.13
2017-08-19T00:47:04.869Z,-4.13
2017-08-19T00:48:00.286Z,-4.13
2017-08-19T00:48:49.304Z,-4.13
2017-08-19T00:49:38.086Z,-4.13
2017-08-19T00:50:38.028Z,-4.13
2017-08-19T00:51:26.061Z,-4.13
2017-08-19T00:52:14.232Z,-4.13
2017-08-19T00:53:08.640Z,-4.13
2017-08-19T00:54:08.513Z,-4.13
2017-08-19T00:54:57.444Z,-4.13
2017-08-19T00:55:45.357Z,-4.13
2017-08-19T00:56:34.723Z,-4.13
2017-08-19T00:57:28.820Z,-4.13
2017-08-19T00:58:28.857Z,-4.13
2017-08-19T00:59:22.526Z,-4.13
2017-08-19T01:00:22.720Z,-4.13
2017-08-19T01:01:17.812Z,-4.13
2017-08-19T01:02:12.524Z,-4.13
2017-08-19T01:03:12.905Z,-4.13
2017-08-19T01:04:07.570Z,-4.13
2017-08-19T01:05:02.740Z,-4.13
2017-08-19T01:06:03.782Z,-4.13
2017-08-19T01:07:03.780Z,-4.13
2017-08-19T01:08:04.115Z,-4.13
2017-08-19T01:08:58.886Z,-4.13
2017-08-19T01:09:53.812Z,-4.13
2017-08-19T01:10:47.949Z,-4.13
2017-08-19T01:11:42.887Z,-4.13
2017-08-19T01:12:38.201Z,-4.13
2017-08-19T01:13:33.272Z,-4.13
2017-08-19T01:14:27.051Z,-4.13
2017-08-19T01:15:21.984Z,-4.13
2017-08-19T01:16:16.247Z,-4.13
2017-08-19T01:17:16.022Z,-4.13
2017-08-19T01:18:10.491Z,-4.13
2017-08-19T01:19:10.305Z,-4.13
2017-08-19T01:20:04.190Z,-4.13
2017-08-19T01:20:59.460Z,-4.13
2017-08-19T01:21:54.422Z,-4.13
2017-08-19T01:22:54.667Z,-4.13
2017-08-19T01:23:49.690Z,-4.13
2017-08-19T01:24:44.780Z,-4.13
2017-08-19T01:25:45.401Z,-4.13
2017-08-19T01:26:45.871Z,-4.13
2017-08-19T01:27:45.823Z,-4.13
2017-08-19T01:28:40.486Z,-4.13
2017-08-19T01:29:34.830Z,-4.13
2017-08-19T01:30:35.750Z,-4.13
2017-08-19T01:31:29.806Z,-4.13
2017-08-19T01:32:17.720Z,-4.13
2017-08-19T01:33:06.137Z,-4.13
2017-08-19T01:33:54.667Z,-4.13
2017-08-19T01:34:43.134Z,-4.13
2017-08-19T01:35:30.789Z,-4.13
2017-08-19T01:36:18.838Z,-4.13
2017-08-19T01:37:19.885Z,-4.13
2017-08-19T01:38:19.978Z,-4.13
2017-08-19T01:39:14.930Z,-4.13
2017-08-19T01:40:10.051Z,-4.13
2017-08-19T01:41:10.024Z,-4.13
2017-08-19T01:42:05.109Z,-4.13
2017-08-19T01:43:06.448Z,-4.13
2017-08-19T01:44:07.334Z,-4.13
2017-08-19T01:44:55.147Z,-4.13
2017-08-19T01:45:43.548Z,-4.13
2017-08-19T01:46:37.544Z,-4.13
2017-08-19T01:47:37.634Z,-4.13
2017-08-19T01:48:31.613Z,-4.13
2017-08-19T01:49:37.687Z,-4.13
2017-08-19T01:50:31.334Z,-4.13
2017-08-19T01:51:20.766Z,-4.13
2017-08-19T01:52:09.645Z,-4.13
2017-08-19T01:52:57.825Z,-4.13
2017-08-19T01:53:57.513Z,-4.13
2017-08-19T01:54:51.868Z,-4.13
2017-08-19T01:55:51.831Z,-4.13
2017-08-19T01:56:40.927Z,-4.13
2017-08-19T01:57:29.049Z,-4.13
2017-08-19T01:58:28.616Z,-4.13
2017-08-19T01:59:23.024Z,-4.13
2017-08-19T02:00:18.011Z,-4.13
2017-08-19T02:01:12.149Z,-4.13
2017-08-19T02:02:06.820Z,-4.13
2017-08-19T02:02:56.220Z,-4.13
2017-08-19T02:03:44.905Z,-4.13
2017-08-19T02:04:46.120Z,-4.13
2017-08-19T02:05:41.140Z,-4.13
2017-08-19T02:06:28.975Z,-4.13
2017-08-19T02:07:18.077Z,-4.13
2017-08-19T02:08:06.414Z,-4.13
2017-08-19T02:08:54.153Z,-4.13
2017-08-19T02:09:48.207Z,-4.13
2017-08-19T02:10:48.213Z,-4.13
2017-08-19T02:11:54.548Z,-4.13
2017-08-19T02:12:49.562Z,-4.13
2017-08-19T02:13:49.417Z,-4.13
2017-08-19T02:14:44.725Z,-4.13
2017-08-19T02:15:39.561Z,-4.13
2017-08-19T02:16:39.411Z,-4.13
2017-08-19T02:17:33.682Z,-4.13
2017-08-19T02:18:22.641Z,-4.13
2017-08-19T02:19:10.614Z,-4.13
2017-08-19T02:20:04.645Z,-4.13
2017-08-19T02:20:58.527Z,-4.13
2017-08-19T02:21:46.873Z,-4.13
2017-08-19T02:22:35.053Z,-4.13
2017-08-19T02:23:22.666Z,-4.13
2017-08-19T02:24:11.682Z,-4.13
2017-08-19T02:25:00.141Z,-4.13
2017-08-19T02:25:47.735Z,-4.13
2017-08-19T02:26:36.122Z,-4.13
2017-08-19T02:27:25.227Z,-4.13
2017-08-19T02:28:19.214Z,-4.13
2017-08-19T02:29:07.028Z,-4.13
2017-08-19T02:29:54.954Z,-4.13
2017-08-19T02:30:43.373Z,-4.13
2017-08-19T02:31:37.053Z,-4.13
2017-08-19T02:32:31.528Z,-4.13
2017-08-19T02:33:20.395Z,-4.13
2017-08-19T02:34:08.193Z,-4.13
2017-08-19T02:34:56.581Z,-4.13
2017-08-19T02:35:44.638Z,-4.13
2017-08-19T02:36:33.390Z,-4.13
2017-08-19T02:37:21.714Z,-4.13
2017-08-19T02:38:09.767Z,-4.13
2017-08-19T02:38:58.674Z,-4.13
2017-08-19T02:39:46.487Z,-4.13
2017-08-19T02:40:35.870Z,-4.13
2017-08-19T02:41:30.918Z,-4.13
2017-08-19T02:42:30.866Z,-4.13
2017-08-19T02:43:30.934Z,-4.13
2017-08-19T02:44:19.723Z,-4.13
2017-08-19T02:45:08.769Z,-4.13
2017-08-19T02:45:57.104Z,-4.13
2017-08-19T02:46:46.071Z,-4.13
2017-08-19T02:47:34.220Z,-4.13
2017-08-19T02:48:27.880Z,-4.13
2017-08-19T02:49:22.230Z,-4.13
2017-08-19T02:50:10.310Z,-4.13
2017-08-19T02:50:58.026Z,-4.13
2017-08-19T02:51:46.272Z,-4.13
2017-08-19T02:52:41.472Z,-4.13
2017-08-19T02:53:35.411Z,-4.13
2017-08-19T02:54:41.442Z,-4.13
2017-08-19T02:55:36.495Z,-4.13
2017-08-19T02:56:30.241Z,-4.13
2017-08-19T02:57:24.200Z,-4.13
2017-08-19T02:58:18.402Z,-4.13
2017-08-19T02:59:12.233Z,-4.13
2017-08-19T03:00:13.451Z,-4.13
2017-08-19T03:01:08.334Z,-4.13
2017-08-19T03:02:02.691Z,-4.13
2017-08-19T03:03:02.758Z,-4.13
2017-08-19T03:03:57.793Z,-4.13
2017-08-19T03:04:51.775Z,-4.13
2017-08-19T03:05:51.543Z,-4.13
2017-08-19T03:06:51.942Z,-4.13
2017-08-19T03:07:47.034Z,-4.13
2017-08-19T03:08:40.942Z,-4.13
2017-08-19T03:09:35.996Z,-4.13
2017-08-19T03:10:24.060Z,-4.13
2017-08-19T03:11:13.162Z,-4.13
2017-08-19T03:12:08.099Z,-4.13
2017-08-19T03:12:57.098Z,-4.13
2017-08-19T03:13:52.161Z,-4.13
2017-08-19T03:14:39.910Z,-4.13
2017-08-19T03:15:39.929Z,-4.13
2017-08-19T03:16:46.134Z,-4.13
2017-08-19T03:17:41.392Z,-4.13
2017-08-19T03:18:36.017Z,-4.13
2017-08-19T03:19:25.006Z,-4.13
2017-08-19T03:20:25.094Z,-4.13
2017-08-19T03:21:19.204Z,-4.13
2017-08-19T03:22:19.196Z,-4.13
2017-08-19T03:23:14.762Z,-4.13
2017-08-19T03:24:03.532Z,-4.13
2017-08-19T03:24:51.570Z,-4.13
2017-08-19T03:25:40.546Z,-4.13
2017-08-19T03:26:28.578Z,-4.13
2017-08-19T03:27:17.691Z,-4.13
2017-08-19T03:28:05.732Z,-4.13
2017-08-19T03:28:59.791Z,-4.13
2017-08-19T03:29:59.728Z,-4.13
2017-08-19T03:30:59.931Z,-4.13
2017-08-19T03:31:47.894Z,-4.13
2017-08-19T03:32:41.934Z,-4.13
2017-08-19T03:33:29.869Z,-4.13
2017-08-19T03:34:24.013Z,-4.13
2017-08-19T03:35:13.037Z,-4.13
2017-08-19T03:36:07.133Z,-4.13
2017-08-19T03:37:00.772Z,-4.13
2017-08-19T03:37:55.263Z,-4.13
2017-08-19T03:38:44.111Z,-4.13
2017-08-19T03:39:43.947Z,-4.13
2017-08-19T03:40:38.977Z,-4.13
2017-08-19T03:41:33.000Z,-4.13
2017-08-19T03:42:33.303Z,-4.13
2017-08-19T03:43:27.129Z,-4.13
2017-08-19T03:44:22.137Z,-4.13
2017-08-19T03:45:17.090Z,-4.13
2017-08-19T03:46:05.244Z,-4.13
2017-08-19T03:47:00.198Z,-4.13
2017-08-19T03:47:54.573Z,-4.13
2017-08-19T03:48:55.334Z,-4.13
2017-08-19T03:49:55.392Z,-4.13
2017-08-19T03:50:49.874Z,-4.13
2017-08-19T03:51:43.553Z,-4.13
2017-08-19T03:52:43.365Z,-4.13
2017-08-19T03:53:43.684Z,-4.13
2017-08-19T03:54:44.622Z,-4.13
2017-08-19T03:55:38.734Z,-4.13
2017-08-19T03:56:27.568Z,-4.13
2017-08-19T03:57:27.953Z,-4.13
2017-08-19T03:58:16.620Z,-4.13
2017-08-19T03:59:11.640Z,-4.13
2017-08-19T04:00:00.863Z,-4.13
2017-08-19T04:01:00.709Z,-4.13
2017-08-19T04:01:54.688Z,-4.13
2017-08-19T04:02:55.077Z,-4.13
2017-08-19T04:03:49.767Z,-4.13
2017-08-19T04:04:49.963Z,-4.13
2017-08-19T04:05:43.933Z,-4.13
2017-08-19T04:06:37.937Z,-4.13
2017-08-19T04:07:33.275Z,-4.13
2017-08-19T04:08:20.968Z,-4.13
2017-08-19T04:09:21.048Z,-4.13
2017-08-19T04:10:20.955Z,-4.13
2017-08-19T04:11:15.135Z,-4.13
2017-08-19T04:12:15.079Z,-4.13
2017-08-19T04:13:10.176Z,-4.13
2017-08-19T04:14:05.171Z,-4.13
2017-08-19T04:15:11.198Z,-4.13
2017-08-19T04:16:05.480Z,-4.13
2017-08-19T04:16:54.216Z,-4.13
2017-08-19T04:17:49.509Z,-4.13
2017-08-19T04:18:44.346Z,-4.13
2017-08-19T04:19:33.351Z,-4.13
2017-08-19T04:20:22.554Z,-4.13
2017-08-19T04:21:11.485Z,-4.13
2017-08-19T04:22:06.533Z,-4.13
2017-08-19T04:23:01.581Z,-4.13
2017-08-19T04:24:02.714Z,-4.13
2017-08-19T04:24:57.537Z,-4.13
2017-08-19T04:25:57.708Z,-4.13
2017-08-19T04:26:51.755Z,-4.13
2017-08-19T04:27:40.705Z,-4.13
2017-08-19T04:28:40.950Z,-4.13
2017-08-19T04:29:28.802Z,-4.13
2017-08-19T04:30:22.779Z,-4.13
2017-08-19T04:31:16.927Z,-4.13
2017-08-19T04:32:10.871Z,-4.13
2017-08-19T04:33:05.972Z,-4.13
2017-08-19T04:33:59.917Z,-4.13
2017-08-19T04:34:55.022Z,-4.13
2017-08-19T04:35:55.177Z,-4.13
2017-08-19T04:36:55.079Z,-4.13
2017-08-19T04:37:49.118Z,-4.13
2017-08-19T04:38:44.133Z,-4.13
2017-08-19T04:39:44.142Z,-4.13
2017-08-19T04:40:38.394Z,-4.13
2017-08-19T04:41:32.285Z,-4.13
2017-08-19T04:42:26.459Z,-4.13
2017-08-19T04:43:20.378Z,-4.13
2017-08-19T04:44:21.624Z,-4.13
2017-08-19T04:45:21.739Z,-4.13
2017-08-19T04:46:21.842Z,-4.13
2017-08-19T04:47:21.430Z,-4.13
2017-08-19T04:48:21.489Z,-4.13
2017-08-19T04:49:15.485Z,-4.13
2017-08-19T04:50:10.772Z,-4.13
2017-08-19T04:51:04.607Z,-4.13
2017-08-19T04:51:59.951Z,-4.13
2017-08-19T04:52:53.661Z,-4.13
2017-08-19T04:53:41.736Z,-4.13
2017-08-19T04:54:42.724Z,-4.13
2017-08-19T04:55:31.937Z,-4.13
2017-08-19T04:56:27.030Z,-4.13
2017-08-19T04:57:21.200Z,-4.13
2017-08-19T04:58:21.088Z,-4.13
2017-08-19T04:59:16.054Z,-4.13
2017-08-19T05:00:10.968Z,-4.13
2017-08-19T05:00:59.966Z,-4.13
2017-08-19T05:01:55.023Z,-4.13
2017-08-19T05:02:55.087Z,-4.13
2017-08-19T05:03:49.214Z,-4.13
2017-08-19T05:04:49.409Z,-4.13
2017-08-19T05:05:43.444Z,-4.13
2017-08-19T05:06:38.451Z,-4.13
2017-08-19T05:07:38.539Z,-4.13
2017-08-19T05:08:33.419Z,-4.13
2017-08-19T05:09:28.325Z,-4.13
2017-08-19T05:10:23.670Z,-4.13
2017-08-19T05:11:23.399Z,-4.13
2017-08-19T05:12:17.662Z,-4.13
2017-08-19T05:13:06.493Z,-4.13
2017-08-19T05:14:01.746Z,-4.13
2017-08-19T05:14:55.765Z,-4.13
2017-08-19T05:15:55.557Z,-4.12
2017-08-19T05:16:50.829Z,-4.12
2017-08-19T05:17:44.660Z,-4.12
2017-08-19T05:18:44.948Z,-4.12
2017-08-19T05:19:38.764Z,-4.12
2017-08-19T05:20:32.790Z,-4.12
2017-08-19T05:21:26.918Z,-4.12
2017-08-19T05:22:14.857Z,-4.12
2017-08-19T05:23:14.793Z,-4.12
2017-08-19T05:24:09.935Z,-4.12
2017-08-19T05:24:58.964Z,-4.12
2017-08-19T05:25:52.975Z,-4.12
2017-08-19T05:26:48.030Z,-4.12
2017-08-19T05:27:48.070Z,-4.12
2017-08-19T05:28:37.090Z,-4.12
2017-08-19T05:29:32.158Z,-4.12
2017-08-19T05:30:32.580Z,-4.12
2017-08-19T05:31:27.186Z,-4.12
2017-08-19T05:32:21.500Z,-4.11
2017-08-19T05:33:22.342Z,-4.11
2017-08-19T05:34:16.370Z,-4.11
2017-08-19T05:35:10.591Z,-4.12
2017-08-19T05:36:05.342Z,-4.12
2017-08-19T05:36:53.428Z,-4.11
2017-08-19T05:37:42.664Z,-4.11
2017-08-19T05:38:31.848Z,-4.11
2017-08-19T05:39:19.886Z,-4.11
2017-08-19T05:40:08.921Z,-4.11
2017-08-19T05:41:09.728Z,-4.11
2017-08-19T05:42:03.702Z,-4.11
2017-08-19T05:42:57.766Z,-4.11
2017-08-19T05:43:53.122Z,-4.11
2017-08-19T05:44:41.033Z,-4.11
2017-08-19T05:45:35.104Z,-4.11
2017-08-19T05:46:35.284Z,-4.11
2017-08-19T05:47:29.376Z,-4.11
2017-08-19T05:48:29.343Z,-4.11
2017-08-19T05:49:18.433Z,-4.11
2017-08-19T05:50:13.405Z,-4.11
2017-08-19T05:51:13.467Z,-4.11
2017-08-19T05:52:08.641Z,-4.11
2017-08-19T05:53:02.570Z,-4.11
2017-08-19T05:54:02.577Z,-4.11
2017-08-19T05:55:02.642Z,-4.11
2017-08-19T05:55:57.693Z,-4.11
2017-08-19T05:56:58.776Z,-4.11
2017-08-19T05:57:53.693Z,-4.10
2017-08-19T05:58:54.822Z,-4.11
2017-08-19T05:59:49.864Z,-4.10
2017-08-19T06:00:43.856Z,-4.10
2017-08-19T06:01:44.966Z,-4.10
2017-08-19T06:02:50.881Z,-4.10
2017-08-19T06:03:45.088Z,-4.10
2017-08-19T06:04:46.086Z,-4.10
2017-08-19T06:05:40.084Z,-4.10
2017-08-19T06:06:34.188Z,-4.10
2017-08-19T06:07:22.229Z,-4.10
2017-08-19T06:08:10.157Z,-4.09
2017-08-19T06:09:10.284Z,-4.09
2017-08-19T06:10:04.349Z,-4.09
2017-08-19T06:10:59.406Z,-4.09
2017-08-19T06:11:54.433Z,-4.09
2017-08-19T06:12:54.435Z,-4.09
2017-08-19T06:13:48.435Z,-4.09
2017-08-19T06:14:43.555Z,-4.09
2017-08-19T06:15:31.537Z,-4.09
2017-08-19T06:16:20.638Z,-4.09
2017-08-19T06:17:14.670Z,-4.09
2017-08-19T06:18:14.757Z,-4.09
2017-08-19T06:19:08.704Z,-4.09
2017-08-19T06:19:57.873Z,-4.09
2017-08-19T06:20:57.801Z,-4.09
2017-08-19T06:21:46.952Z,-4.09
2017-08-19T06:22:41.015Z,-4.09
2017-08-19T06:23:35.952Z,-4.09
2017-08-19T06:24:31.079Z,-4.09
2017-08-19T06:25:19.174Z,-4.08
2017-08-19T06:26:20.190Z,-4.08
2017-08-19T06:27:14.126Z,-4.08
2017-08-19T06:28:08.265Z,-4.08
2017-08-19T06:29:03.343Z,-4.08
2017-08-19T06:30:03.329Z,-4.08
2017-08-19T06:30:57.324Z,-4.08
2017-08-19T06:31:52.373Z,-4.08
2017-08-19T06:32:52.508Z,-4.08
2017-08-19T06:33:47.415Z,-4.08
2017-08-19T06:34:36.549Z,-4.07
2017-08-19T06:35:36.548Z,-4.07
2017-08-19T06:36:25.699Z,-4.07
2017-08-19T06:37:20.632Z,-4.07
2017-08-19T06:38:14.794Z,-4.07
2017-08-19T06:39:08.807Z,-4.07
2017-08-19T06:39:57.757Z,-4.07
2017-08-19T06:40:46.824Z,-4.07
2017-08-19T06:41:41.003Z,-4.07
2017-08-19T06:42:41.057Z,-4.07
2017-08-19T06:43:35.112Z,-4.07
2017-08-19T06:44:29.039Z,-4.08
2017-08-19T06:45:18.083Z,-4.08
2017-08-19T06:46:12.139Z,-4.08
2017-08-19T06:47:12.219Z,-4.09
2017-08-19T06:48:07.367Z,-4.09
2017-08-19T06:49:01.354Z,-4.09
2017-08-19T06:50:01.440Z,-4.09
2017-08-19T06:51:01.415Z,-4.09
2017-08-19T06:51:56.426Z,-4.09
2017-08-19T06:52:51.562Z,-4.09
2017-08-19T06:53:40.558Z,-4.08
2017-08-19T06:54:29.583Z,-4.08
2017-08-19T06:55:23.605Z,-4.08
2017-08-19T06:56:17.721Z,-4.08
2017-08-19T06:57:06.676Z,-4.08
2017-08-19T06:58:06.846Z,-4.08
2017-08-19T06:58:55.893Z,-4.08
2017-08-19T06:59:44.900Z,-4.08
2017-08-19T07:00:44.961Z,-4.09
2017-08-19T07:01:38.956Z,-4.09
2017-08-19T07:02:33.037Z,-4.09
2017-08-19T07:03:33.133Z,-4.09
2017-08-19T07:04:27.083Z,-4.09
2017-08-19T07:05:27.241Z,-4.09
2017-08-19T07:06:21.139Z,-4.09
2017-08-19T07:07:10.290Z,-4.09
2017-08-19T07:08:11.265Z,-4.09
2017-08-19T07:09:11.384Z,-4.09
2017-08-19T07:10:06.341Z,-4.09
2017-08-19T07:11:00.411Z,-4.09
2017-08-19T07:12:00.495Z,-4.10
2017-08-19T07:12:55.577Z,-4.10
2017-08-19T07:13:50.646Z,-4.10
2017-08-19T07:14:45.672Z,-4.10
2017-08-19T07:15:33.657Z,-4.10
2017-08-19T07:16:28.677Z,-4.10
2017-08-19T07:17:23.728Z,-4.10
2017-08-19T07:18:17.856Z,-4.10
2017-08-19T07:19:12.856Z,-4.10
2017-08-19T07:20:01.882Z,-4.09
2017-08-19T07:20:55.960Z,-4.09
2017-08-19T07:21:44.959Z,-4.09
2017-08-19T07:22:40.066Z,-4.09
2017-08-19T07:23:40.131Z,-4.09
2017-08-19T07:24:34.189Z,-4.09
2017-08-19T07:25:29.189Z,-4.10
2017-08-19T07:26:30.243Z,-4.10
2017-08-19T07:27:24.245Z,-4.10
2017-08-19T07:28:19.347Z,-4.10
2017-08-19T07:29:19.372Z,-4.10
2017-08-19T07:30:13.527Z,-4.10
2017-08-19T07:31:08.474Z,-4.10
2017-08-19T07:32:03.425Z,-4.10
2017-08-19T07:33:04.589Z,-4.10
2017-08-19T07:33:58.568Z,-4.10
2017-08-19T07:34:52.648Z,-4.10
2017-08-19T07:35:52.689Z,-4.10
2017-08-19T07:36:46.732Z,-4.10
2017-08-19T07:37:46.785Z,-4.10
2017-08-19T07:38:35.843Z,-4.10
2017-08-19T07:39:24.751Z,-4.10
2017-08-19T07:40:13.890Z,-4.10
2017-08-19T07:41:08.948Z,-4.10
2017-08-19T07:42:08.992Z,-4.10
2017-08-19T07:43:04.068Z,-4.10
2017-08-19T07:43:59.059Z,-4.10
2017-08-19T07:44:48.101Z,-4.10
2017-08-19T07:45:43.207Z,-4.10
2017-08-19T07:46:43.137Z,-4.10
2017-08-19T07:47:38.262Z,-4.10
2017-08-19T07:48:33.273Z,-4.10
2017-08-19T07:49:27.380Z,-4.10
2017-08-19T07:50:22.359Z,-4.10
2017-08-19T07:51:16.337Z,-4.10
2017-08-19T07:52:10.467Z,-4.10
2017-08-19T07:53:10.509Z,-4.10
2017-08-19T07:54:04.574Z,-4.10
2017-08-19T07:55:05.670Z,-4.10
2017-08-19T07:56:06.654Z,-4.09
2017-08-19T07:57:00.621Z,-4.09
2017-08-19T07:57:54.670Z,-4.09
2017-08-19T07:58:54.741Z,-4.09
2017-08-19T07:59:54.736Z,-4.08
2017-08-19T08:00:49.759Z,-4.08
2017-08-19T08:01:38.847Z,-4.09
2017-08-19T08:02:33.929Z,-4.09
2017-08-19T08:03:23.008Z,-4.09
2017-08-19T08:04:12.006Z,-4.10
2017-08-19T08:05:06.046Z,-4.10
2017-08-19T08:06:06.087Z,-4.10
2017-08-19T08:07:01.090Z,-4.10
2017-08-19T08:07:56.215Z,-4.10
2017-08-19T08:08:50.255Z,-4.10
2017-08-19T08:09:50.190Z,-4.10
2017-08-19T08:10:39.399Z,-4.10
2017-08-19T08:11:33.392Z,-4.10
2017-08-19T08:12:27.371Z,-4.10
2017-08-19T08:13:21.535Z,-4.10
2017-08-19T08:14:16.527Z,-4.10
2017-08-19T08:15:10.610Z,-4.10
2017-08-19T08:16:10.701Z,-4.11
2017-08-19T08:16:59.619Z,-4.11
2017-08-19T08:17:54.703Z,-4.11
2017-08-19T08:18:49.769Z,-4.11
2017-08-19T08:19:43.839Z,-4.11
2017-08-19T08:20:32.890Z,-4.11
2017-08-19T08:21:26.914Z,-4.10
2017-08-19T08:22:15.992Z,-4.10
2017-08-19T08:23:10.065Z,-4.11
2017-08-19T08:24:10.070Z,-4.11
2017-08-19T08:24:59.071Z,-4.11
2017-08-19T08:25:53.129Z,-4.10
2017-08-19T08:26:53.139Z,-4.10
2017-08-19T08:27:47.239Z,-4.11
2017-08-19T08:28:47.251Z,-4.11
2017-08-19T08:29:41.360Z,-4.11
2017-08-19T08:30:42.377Z,-4.11
2017-08-19T08:31:31.362Z,-4.11
2017-08-19T08:32:31.449Z,-4.11
2017-08-19T08:33:26.489Z,-4.11
2017-08-19T08:34:21.595Z,-4.11
2017-08-19T08:35:21.566Z,-4.10
2017-08-19T08:36:10.635Z,-4.11
2017-08-19T08:36:59.827Z,-4.11
2017-08-19T08:37:54.758Z,-4.11
2017-08-19T08:38:54.749Z,-4.11
2017-08-19T08:39:43.870Z,-4.10
2017-08-19T08:40:37.842Z,-4.10
2017-08-19T08:41:37.778Z,-4.10
2017-08-19T08:42:31.879Z,-4.10
2017-08-19T08:43:26.003Z,-4.10
2017-08-19T08:44:21.055Z,-4.10
2017-08-19T08:45:10.061Z,-4.11
2017-08-19T08:45:59.149Z,-4.10
2017-08-19T08:46:48.145Z,-4.10
2017-08-19T08:47:43.182Z,-4.10
2017-08-19T08:48:49.288Z,-4.10
2017-08-19T08:49:44.216Z,-4.10
2017-08-19T08:50:38.352Z,-4.10
2017-08-19T08:51:32.399Z,-4.10
2017-08-19T08:52:21.423Z,-4.11
2017-08-19T08:53:15.636Z,-4.11
2017-08-19T08:54:10.509Z,-4.11
2017-08-19T08:55:05.550Z,-4.11
2017-08-19T08:55:53.648Z,-4.11
2017-08-19T08:56:53.697Z,-4.11
2017-08-19T08:57:47.675Z,-4.11
2017-08-19T08:58:47.838Z,-4.11
2017-08-19T08:59:47.736Z,-4.11
2017-08-19T09:00:36.818Z,-4.11
2017-08-19T09:01:24.868Z,-4.11
2017-08-19T09:02:24.918Z,-4.11
2017-08-19T09:03:13.901Z,-4.10
2017-08-19T09:04:20.029Z,-4.11
2017-08-19T09:05:14.951Z,-4.10
2017-08-19T09:06:09.165Z,-4.10
2017-08-19T09:07:04.117Z,-4.10
2017-08-19T09:07:58.176Z,-4.10
2017-08-19T09:08:53.288Z,-4.10
2017-08-19T09:09:41.439Z,-4.09
2017-08-19T09:10:35.331Z,-4.08
2017-08-19T09:11:24.419Z,-4.08
2017-08-19T09:12:18.448Z,-4.07
2017-08-19T09:13:12.472Z,-4.06
2017-08-19T09:14:07.512Z,-4.06
2017-08-19T09:15:01.631Z,-4.06
2017-08-19T09:15:56.591Z,-4.07
2017-08-19T09:16:45.680Z,-4.07
2017-08-19T09:17:39.800Z,-4.08
2017-08-19T09:18:39.850Z,-4.08
2017-08-19T09:19:34.900Z,-4.08
2017-08-19T09:20:28.825Z,-4.09
2017-08-19T09:21:28.934Z,-4.09
2017-08-19T09:22:24.012Z,-4.09
2017-08-19T09:23:18.981Z,-4.09
2017-08-19T09:24:13.123Z,-4.09
2017-08-19T09:25:07.143Z,-4.09
2017-08-19T09:26:02.229Z,-4.09
2017-08-19T09:27:02.257Z,-4.10
2017-08-19T09:27:56.357Z,-4.10
2017-08-19T09:28:56.413Z,-4.11
2017-08-19T09:29:51.436Z,-4.11
2017-08-19T09:30:45.402Z,-4.11
2017-08-19T09:31:39.580Z,-4.11
2017-08-19T09:32:34.541Z,-4.11
2017-08-19T09:33:22.620Z,-4.11
2017-08-19T09:34:22.675Z,-4.11
2017-08-19T09:35:17.742Z,-4.11
2017-08-19T09:36:11.838Z,-4.12
2017-08-19T09:37:06.767Z,-4.12
2017-08-19T09:38:01.890Z,-4.12
2017-08-19T09:38:50.931Z,-4.12
2017-08-19T09:39:44.962Z,-4.12
2017-08-19T09:40:39.048Z,-4.12
2017-08-19T09:41:34.109Z,-4.12
2017-08-19T09:42:28.141Z,-4.12
2017-08-19T09:43:16.256Z,-4.11
2017-08-19T09:44:10.208Z,-4.11
2017-08-19T09:45:04.224Z,-4.11
2017-08-19T09:45:59.279Z,-4.11
2017-08-19T09:46:59.268Z,-4.11
2017-08-19T09:47:53.362Z,-4.11
2017-08-19T09:48:48.465Z,-4.11
2017-08-19T09:49:42.514Z,-4.11
2017-08-19T09:50:36.587Z,-4.11
2017-08-19T09:51:36.543Z,-4.11
2017-08-19T09:52:30.682Z,-4.11
2017-08-19T09:53:24.615Z,-4.11
2017-08-19T09:54:18.808Z,-4.10
2017-08-19T09:55:12.810Z,-4.11
2017-08-19T09:56:07.863Z,-4.10
2017-08-19T09:57:02.792Z,-4.10
2017-08-19T09:57:57.923Z,-4.10
2017-08-19T09:58:51.983Z,-4.10
2017-08-19T09:59:46.053Z,-4.10
2017-08-19T10:00:46.125Z,-4.10
2017-08-19T10:01:41.088Z,-4.09
2017-08-19T10:02:35.203Z,-4.09
2017-08-19T10:03:30.225Z,-4.10
2017-08-19T10:04:31.237Z,-4.09
2017-08-19T10:05:26.291Z,-4.08
2017-08-19T10:06:20.311Z,-4.09
2017-08-19T10:07:14.396Z,-4.09
2017-08-19T10:08:14.388Z,-4.08
2017-08-19T10:09:03.447Z,-4.08
2017-08-19T10:09:57.491Z,-4.07
2017-08-19T10:10:52.604Z,-4.07
2017-08-19T10:11:46.661Z,-4.06
2017-08-19T10:12:40.739Z,-4.06
2017-08-19T10:13:35.745Z,-4.07
2017-08-19T10:14:29.790Z,-4.06
2017-08-19T10:15:17.848Z,-4.05
2017-08-19T10:16:11.946Z,-4.04
2017-08-19T10:17:05.960Z,-4.04
2017-08-19T10:18:01.022Z,-4.04
2017-08-19T10:19:01.138Z,-4.04
2017-08-19T10:19:55.151Z,-4.05
2017-08-19T10:20:49.198Z,-4.06
2017-08-19T10:21:44.191Z,-4.06
2017-08-19T10:22:38.379Z,-4.07
2017-08-19T10:23:38.335Z,-4.07
2017-08-19T10:24:32.424Z,-4.07
2017-08-19T10:25:26.521Z,-4.07
2017-08-19T10:26:20.533Z,-4.07
2017-08-19T10:27:15.602Z,-4.07
2017-08-19T10:28:10.684Z,-4.07
2017-08-19T10:29:05.723Z,-4.06
2017-08-19T10:30:00.704Z,-4.06
2017-08-19T10:30:55.750Z,-4.05
2017-08-19T10:31:44.817Z,-4.06
2017-08-19T10:32:38.917Z,-4.05
2017-08-19T10:33:33.918Z,-4.06
2017-08-19T10:34:29.027Z,-4.05
2017-08-19T10:35:23.022Z,-4.05
2017-08-19T10:36:12.068Z,-4.04
2017-08-19T10:37:07.113Z,-4.04
2017-08-19T10:38:02.170Z,-4.03
2017-08-19T10:38:56.209Z,-2.26
2017-08-19T10:39:50.290Z,12.19
2017-08-19T10:40:44.355Z,-4.03
2017-08-19T10:41:38.524Z,-4.03
2017-08-19T10:42:27.545Z,-4.03
2017-08-19T10:43:21.511Z,4.23
2017-08-19T10:44:10.615Z,2.42
2017-08-19T10:44:59.614Z,10.64
2017-08-19T10:45:48.755Z,1.63
2017-08-19T10:46:36.822Z,9.30
2017-08-19T10:47:38.046Z,-4.04
2017-08-19T10:48:37.919Z,-4.04
2017-08-19T10:49:27.087Z,-0.99
2017-08-19T10:50:26.981Z,0.19
2017-08-19T10:51:21.039Z,-4.04
2017-08-19T10:52:16.046Z,-4.04
2017-08-19T10:53:11.185Z,6.86
2017-08-19T10:54:00.222Z,9.92
2017-08-19T10:55:00.362Z,15.43
2017-08-19T10:55:54.349Z,9.29
2017-08-19T10:56:48.308Z,7.21
2017-08-19T10:57:36.460Z,1.80
2017-08-19T10:58:31.599Z,19.89
2017-08-19T10:59:31.511Z,16.35
2017-08-19T11:00:25.614Z,30.11
2017-08-19T11:01:26.602Z,23.20
2017-08-19T11:02:15.759Z,18.08
2017-08-19T11:03:04.760Z,23.42
2017-08-19T11:04:04.928Z,22.76
2017-08-19T11:04:58.959Z,18.37
2017-08-19T11:05:52.940Z,31.91
2017-08-19T11:06:47.005Z,27.99
2017-08-19T11:07:41.374Z,25.55
2017-08-19T11:08:30.245Z,11.02
2017-08-19T11:09:18.220Z,32.27
2017-08-19T11:10:13.341Z,39.71
2017-08-19T11:11:14.428Z,21.84
2017-08-19T11:12:09.426Z,35.25
2017-08-19T11:12:57.476Z,24.73
2017-08-19T11:13:52.542Z,31.78
2017-08-19T11:14:52.534Z,33.39
2017-08-19T11:15:46.633Z,18.56
2017-08-19T11:16:46.721Z,23.77
2017-08-19T11:17:41.814Z,19.12
2017-08-19T11:18:30.833Z,24.02
2017-08-19T11:19:25.878Z,25.66
2017-08-19T11:20:20.992Z,12.11
2017-08-19T11:21:16.014Z,10.49
2017-08-19T11:22:10.989Z,26.01
2017-08-19T11:23:05.065Z,11.84
2017-08-19T11:23:54.205Z,14.01
2017-08-19T11:24:42.301Z,6.31
2017-08-19T11:25:37.326Z,10.62
2017-08-19T11:26:26.386Z,10.28
2017-08-19T11:27:21.411Z,1.15
2017-08-19T11:28:16.402Z,19.64
2017-08-19T11:29:10.578Z,17.98
2017-08-19T11:30:04.572Z,15.86
2017-08-19T11:30:58.682Z,18.53
2017-08-19T11:31:58.739Z,-4.03
2017-08-19T11:32:46.780Z,14.89
2017-08-19T11:33:40.797Z,13.08
2017-08-19T11:34:29.890Z,10.34
2017-08-19T11:35:18.003Z,18.40
2017-08-19T11:36:12.088Z,26.92
2017-08-19T11:37:07.120Z,35.08
2017-08-19T11:37:56.203Z,32.36
2017-08-19T11:38:51.139Z,24.73
2017-08-19T11:39:51.249Z,12.89
2017-08-19T11:40:40.264Z,16.64
2017-08-19T11:41:34.393Z,13.43
2017-08-19T11:42:28.476Z,15.71